createdAt,value
2022-10-23T00:04:59.194Z,97907.56
2022-10-23T00:10:06.190Z,97917.84
2022-10-23T00:15:16.265Z,97910.81
2022-10-23T00:20:19.919Z,97920.31
2022-10-23T00:25:23.877Z,97911.94
2022-10-23T00:30:27.523Z,97909.75
2022-10-23T00:35:32.297Z,97903.00
2022-10-23T00:40:37.683Z,97894.06
2022-10-23T00:45:40.932Z,97888.63
2022-10-23T00:50:46.720Z,97906.28
2022-10-23T00:55:53.310Z,97899.22
2022-10-23T01:00:57.372Z,97897.56
2022-10-23T01:06:05.129Z,97903.28
2022-10-23T01:11:15.192Z,97897.81
2022-10-23T01:16:31.959Z,97894.84
2022-10-23T01:21:54.875Z,97895.94
2022-10-23T01:27:12.543Z,97899.72
2022-10-23T01:32:27.637Z,97911.38
2022-10-23T01:37:45.975Z,97909.75
2022-10-23T01:42:55.163Z,97901.34
2022-10-23T01:48:04.728Z,97908.66
2022-10-23T01:53:09.278Z,97903.25
2022-10-23T01:58:15.322Z,97902.19
2022-10-23T02:03:20.679Z,97899.78
2022-10-23T02:08:24.682Z,97897.06
2022-10-23T02:13:39.719Z,97897.06
2022-10-23T02:19:00.822Z,97896.50
2022-10-23T02:24:11.635Z,97906.25
2022-10-23T02:29:59.687Z,97909.28
2022-10-23T02:35:04.375Z,97913.34
2022-10-23T02:40:10.012Z,97907.66
2022-10-23T02:46:05.315Z,97907.94
2022-10-23T02:51:48.919Z,97907.41
2022-10-23T02:57:26.728Z,97915.81
2022-10-23T03:02:41.758Z,97921.25
2022-10-23T03:07:47.320Z,97928.81
2022-10-23T03:12:53.577Z,97934.78
2022-10-23T03:17:57.505Z,97936.69
2022-10-23T03:23:00.904Z,97944.81
2022-10-23T03:28:04.458Z,97953.75
2022-10-23T03:33:11.595Z,97953.22
2022-10-23T03:38:15.719Z,97955.41
2022-10-23T03:43:19.465Z,97957.56
2022-10-23T03:48:23.118Z,97955.94
2022-10-23T03:53:26.371Z,97959.75
2022-10-23T03:58:29.858Z,97962.72
2022-10-23T04:03:33.391Z,97969.53
2022-10-23T04:08:37.468Z,97966.25
2022-10-23T04:13:47.398Z,97963.28
2022-10-23T04:18:53.017Z,97967.66
2022-10-23T04:23:59.890Z,97971.97
2022-10-23T04:29:03.412Z,97970.09
2022-10-23T04:39:15.531Z,97974.19
2022-10-23T04:44:18.931Z,97975.56
2022-10-23T04:49:22.737Z,97991.59
2022-10-23T04:54:47.595Z,97999.19
2022-10-23T05:00:06.013Z,98002.75
2022-10-23T05:05:17.819Z,98001.38
2022-10-23T05:10:28.046Z,98013.06
2022-10-23T05:15:38.079Z,98012.53
2022-10-23T05:20:42.460Z,98012.78
2022-10-23T05:25:47.235Z,98021.69
2022-10-23T05:31:01.247Z,98034.97
2022-10-23T05:36:06.144Z,98050.44
2022-10-23T05:41:10.474Z,98051.25
2022-10-23T05:46:16.690Z,98048.22
2022-10-23T05:51:42.209Z,98042.34
2022-10-23T05:56:57.699Z,98040.75
2022-10-23T06:02:22.851Z,98038.59
2022-10-23T06:07:36.328Z,98037.38
2022-10-23T06:12:42.430Z,98042.44
2022-10-23T06:17:50.223Z,98052.31
2022-10-23T06:22:54.083Z,98050.31
2022-10-23T06:28:18.311Z,98044.59
2022-10-23T06:33:24.800Z,98032.91
2022-10-23T06:38:28.898Z,98042.56
2022-10-23T06:43:34.357Z,98042.75
2022-10-23T06:49:00.539Z,98044.66
2022-10-23T06:54:08.928Z,98037.25
2022-10-23T06:59:27.399Z,98041.13
2022-10-23T07:04:32.092Z,98034.81
2022-10-23T07:09:37.411Z,98028.56
2022-10-23T07:14:49.481Z,98018.06
2022-10-23T07:19:53.518Z,98019.88
2022-10-23T07:24:57.101Z,98016.81
2022-10-23T07:30:11.765Z,98021.91
2022-10-23T07:35:21.858Z,98027.28
2022-10-23T07:40:39.440Z,98023.91
2022-10-23T07:45:48.486Z,98019.69
2022-10-23T07:51:03.690Z,98023.03
2022-10-23T07:56:22.564Z,98012.22
2022-10-23T08:01:55.704Z,98008.06
2022-10-23T08:07:04.425Z,98002.13
2022-10-23T08:12:14.246Z,98000.81
2022-10-23T08:17:17.930Z,97999.63
2022-10-23T08:22:51.751Z,98000.53
2022-10-23T08:28:03.098Z,97994.81
2022-10-23T08:33:15.492Z,97983.91
2022-10-23T08:38:20.506Z,97974.19
2022-10-23T08:43:42.519Z,97964.69
2022-10-23T08:49:26.958Z,97952.72
2022-10-23T08:54:45.339Z,97953.53
2022-10-23T09:00:00.435Z,97950.38
2022-10-23T09:05:09.789Z,97932.69
2022-10-23T09:10:37.853Z,97925.38
2022-10-23T09:15:47.759Z,97922.09
2022-10-23T09:20:55.048Z,97924.13
2022-10-23T09:26:02.605Z,97920.69
2022-10-23T09:31:10.491Z,97904.66
2022-10-23T09:36:13.921Z,97911.47
2022-10-23T09:41:30.918Z,97909.22
2022-10-23T09:47:08.017Z,97915.94
2022-10-23T09:52:11.264Z,97912.69
2022-10-23T09:57:27.629Z,97892.75
2022-10-23T10:02:33.962Z,97884.84
2022-10-23T10:07:59.564Z,97882.22
2022-10-23T10:13:28.890Z,97869.66
2022-10-23T10:18:57.044Z,97867.97
2022-10-23T10:24:05.617Z,97868.88
2022-10-23T10:29:30.645Z,97866.53
2022-10-23T10:34:59.139Z,97864.84
2022-10-23T10:40:26.902Z,97866.13
2022-10-23T10:45:52.787Z,97855.53
2022-10-23T10:51:08.529Z,97859.25
2022-10-23T10:56:28.221Z,97856.31
2022-10-23T11:01:47.112Z,97864.34
2022-10-23T11:06:54.474Z,97853.31
2022-10-23T11:11:58.487Z,97855.09
2022-10-23T11:17:11.449Z,97851.25
2022-10-23T11:22:31.049Z,97857.22
2022-10-23T11:27:44.234Z,97865.47
2022-10-23T11:33:07.570Z,97872.94
2022-10-23T11:38:25.019Z,97873.84
2022-10-23T11:43:31.275Z,97889.75
2022-10-23T11:48:38.739Z,97898.50
2022-10-23T11:53:43.289Z,97892.66
2022-10-23T11:58:51.110Z,97897.09
2022-10-23T12:04:04.373Z,97894.34
2022-10-23T12:09:42.419Z,97892.88
2022-10-23T12:14:51.150Z,97889.69
2022-10-23T12:20:01.794Z,97875.03
2022-10-23T12:25:15.915Z,97884.94
2022-10-23T12:30:36.805Z,97873.22
2022-10-23T12:36:06.499Z,97867.34
2022-10-23T12:41:17.168Z,97867.75
2022-10-23T12:46:42.473Z,97878.81
2022-10-23T12:51:59.496Z,97884.16
2022-10-23T12:57:02.903Z,97892.13
2022-10-23T13:02:23.410Z,97902.78
2022-10-23T13:07:30.053Z,97906.09
2022-10-23T13:12:38.914Z,97910.94
2022-10-23T13:17:48.815Z,97926.06
2022-10-23T13:23:19.106Z,97908.75
2022-10-23T13:28:29.055Z,97920.50
2022-10-23T13:33:39.747Z,97928.88
2022-10-23T13:39:00.398Z,97937.59
2022-10-23T13:44:03.712Z,97930.06
2022-10-23T13:49:07.345Z,97919.28
2022-10-23T13:54:15.675Z,97936.13
2022-10-23T13:59:30.195Z,97951.38
2022-10-23T14:04:34.403Z,97958.97
2022-10-23T14:09:37.882Z,97975.56
2022-10-23T14:14:42.741Z,97988.91
2022-10-23T14:19:46.299Z,97978.03
2022-10-23T14:24:50.886Z,97982.66
2022-10-23T14:29:54.123Z,97977.50
2022-10-23T14:34:57.363Z,97976.41
2022-10-23T14:40:01.246Z,97969.09
2022-10-23T14:45:07.338Z,97953.06
2022-10-23T14:50:12.109Z,97969.09
2022-10-23T14:55:15.335Z,97985.38
2022-10-23T15:00:19.571Z,97987.00
2022-10-23T15:05:23.075Z,97995.94
2022-10-23T15:10:27.109Z,98000.03
2022-10-23T15:15:32.382Z,98004.34
2022-10-23T15:20:36.315Z,98006.25
2022-10-23T15:25:39.507Z,97998.91
2022-10-23T15:30:43.757Z,97995.38
2022-10-23T15:35:49.706Z,97991.56
2022-10-23T15:41:00.236Z,97980.72
2022-10-23T15:46:06.471Z,97963.03
2022-10-23T15:51:10.364Z,97960.59
2022-10-23T15:56:13.725Z,97963.84
2022-10-23T16:01:16.887Z,97978.22
2022-10-23T16:06:21.285Z,97984.47
2022-10-23T16:11:36.460Z,97994.50
2022-10-23T16:16:39.769Z,98001.00
2022-10-23T16:21:43.127Z,98001.81
2022-10-23T16:26:46.701Z,98008.59
2022-10-23T16:31:50.422Z,98010.56
2022-10-23T16:36:53.857Z,98024.69
2022-10-23T16:42:10.903Z,98016.28
2022-10-23T16:47:44.626Z,98023.06
2022-10-23T16:52:49.912Z,98025.50
2022-10-23T16:57:55.555Z,98021.97
2022-10-23T17:02:58.706Z,98021.44
2022-10-23T17:08:02.281Z,98024.97
2022-10-23T17:13:05.732Z,98024.97
2022-10-23T17:18:09.207Z,98020.91
2022-10-23T17:23:12.994Z,98012.75
2022-10-23T17:28:16.460Z,98013.31
2022-10-23T17:33:20.163Z,98002.72
2022-10-23T17:38:24.827Z,98007.34
2022-10-23T17:43:28.508Z,98000.03
2022-10-23T17:48:32.011Z,97992.16
2022-10-23T17:53:37.960Z,98000.28
2022-10-23T17:58:41.838Z,97982.38
2022-10-23T18:03:45.530Z,97990.53
2022-10-23T18:08:49.909Z,97991.88
2022-10-23T18:13:54.635Z,97984.31
2022-10-23T18:19:01.054Z,97984.84
2022-10-23T18:24:04.857Z,97991.06
2022-10-23T18:29:09.693Z,97977.16
2022-10-23T18:34:24.130Z,97986.88
2022-10-23T18:39:27.893Z,97983.31
2022-10-23T18:44:31.270Z,97984.06
2022-10-23T18:49:35.271Z,97982.44
2022-10-23T18:54:38.584Z,97982.94
2022-10-23T18:59:41.864Z,97974.28
2022-10-23T19:04:45.194Z,97976.94
2022-10-23T19:09:48.959Z,97973.16
2022-10-23T19:14:53.128Z,97976.94
2022-10-23T19:20:03.733Z,97976.38
2022-10-23T19:25:31.275Z,97979.34
2022-10-23T19:30:35.291Z,97982.03
2022-10-23T19:35:38.517Z,97983.09
2022-10-23T19:40:41.961Z,97978.66
2022-10-23T19:45:45.416Z,97982.69
2022-10-23T19:50:48.620Z,97978.84
2022-10-23T19:55:53.108Z,97979.41
2022-10-23T20:00:57.022Z,97980.22
2022-10-23T20:06:00.911Z,97990.81
2022-10-23T20:11:04.432Z,97994.56
2022-10-23T20:16:10.453Z,97992.13
2022-10-23T20:21:22.868Z,97995.63
2022-10-23T20:26:26.514Z,97992.09
2022-10-23T20:31:29.970Z,97993.97
2022-10-23T20:36:36.465Z,97990.22
2022-10-23T20:41:42.642Z,97990.81
2022-10-23T20:46:50.374Z,97980.22
2022-10-23T20:51:56.074Z,97981.25
2022-10-23T20:56:59.404Z,97984.81
2022-10-23T21:02:02.667Z,97976.97
2022-10-23T21:07:10.827Z,97971.53
2022-10-23T21:12:16.237Z,97962.59
2022-10-23T21:17:22.601Z,97945.53
2022-10-23T21:22:26.090Z,97961.00
2022-10-23T21:27:29.723Z,97965.38
2022-10-23T21:32:33.660Z,97965.97
2022-10-23T21:37:37.180Z,97966.03
2022-10-23T21:42:40.751Z,97963.31
2022-10-23T21:47:44.490Z,97966.06
2022-10-23T21:52:53.065Z,97975.31
2022-10-23T21:57:57.360Z,97969.59
2022-10-23T22:03:00.825Z,97966.13
2022-10-23T22:08:04.407Z,97968.56
2022-10-23T22:13:07.639Z,97963.44
2022-10-23T22:18:10.918Z,97958.00
2022-10-23T22:23:14.315Z,97949.06
2022-10-23T22:28:17.899Z,97949.63
2022-10-23T22:33:22.739Z,97945.53
2022-10-23T22:38:31.764Z,97946.34
2022-10-23T22:43:35.217Z,97944.22
2022-10-23T22:48:40.273Z,97947.75
2022-10-23T22:53:44.624Z,97939.34
2022-10-23T22:58:48.477Z,97939.59
2022-10-23T23:03:52.180Z,97945.03
2022-10-23T23:08:56.687Z,97943.66
2022-10-23T23:14:01.378Z,97937.44
2022-10-23T23:19:05.043Z,97929.31
2022-10-23T23:24:10.333Z,97930.41
2022-10-23T23:29:14.505Z,97923.06
2022-10-23T23:34:18.166Z,97927.41
2022-10-23T23:39:21.819Z,97923.38
2022-10-23T23:44:26.217Z,97923.38
2022-10-23T23:49:29.770Z,97911.69
2022-10-23T23:54:33.298Z,97922.53
2022-10-23T23:59:41.894Z,97919.28
